X  Lukk Metar værinformasjon om luftfart     KDNN Dalton Municipal Airport
Temperatur
28°C Temperatur
9°C Duggpunkt
30% Luftfuktighet



Vind
8 KM/T
5 MPT
2 M/S
4 KNP



180°
S
Nåværende forhold

Delvis overskyet Delvis overskyet
Trykk 1016.93 (hPa) - 30.03 (inHg)
Sikt 9 (mil) - 14.5 (km)
Flyplass
Flyplass-kode KDNN

Plassering: Dalton Municipal Airport
Avstand: 34 (km)

Metar:
KDNN 162235Z AUTO 18004KT 9SM FEW210 SCT240 28/09 A3003 RMK AO2 T02760092

Tid: 04-16-2024 18:35 EDT